sensor_id;sensor_type;location;lat;lon;timestamp;temperature;humidity
31729;DHT22;18309;43.658;1.312;2023-11-21T00:02:14;12.00;99.90
31729;DHT22;18309;43.658;1.312;2023-11-21T00:04:39;12.00;99.90
31729;DHT22;18309;43.658;1.312;2023-11-21T00:07:05;11.90;99.90
31729;DHT22;18309;43.658;1.312;2023-11-21T00:09:32;11.90;99.90
31729;DHT22;18309;43.658;1.312;2023-11-21T00:11:57;11.90;99.90
31729;DHT22;18309;43.658;1.312;2023-11-21T00:14:24;11.90;99.90
31729;DHT22;18309;43.658;1.312;2023-11-21T00:16:50;11.90;99.90
31729;DHT22;18309;43.658;1.312;2023-11-21T00:19:16;11.90;99.90
31729;DHT22;18309;43.658;1.312;2023-11-21T00:21:42;11.90;99.90
31729;DHT22;18309;43.658;1.312;2023-11-21T00:24:10;11.90;99.90
31729;DHT22;18309;43.658;1.312;2023-11-21T00:26:36;11.80;99.90
31729;DHT22;18309;43.658;1.312;2023-11-21T00:29:04;11.90;99.90
31729;DHT22;18309;43.658;1.312;2023-11-21T00:31:34;11.90;99.90
31729;DHT22;18309;43.658;1.312;2023-11-21T00:34:05;11.80;99.90
31729;DHT22;18309;43.658;1.312;2023-11-21T00:36:31;11.80;99.90
31729;DHT22;18309;43.658;1.312;2023-11-21T00:38:58;11.90;99.90
31729;DHT22;18309;43.658;1.312;2023-11-21T00:41:25;11.80;99.90
31729;DHT22;18309;43.658;1.312;2023-11-21T00:43:53;11.80;99.90
31729;DHT22;18309;43.658;1.312;2023-11-21T00:46:19;11.80;99.90
31729;DHT22;18309;43.658;1.312;2023-11-21T00:48:45;11.80;99.90
31729;DHT22;18309;43.658;1.312;2023-11-21T00:51:10;11.80;99.90
31729;DHT22;18309;43.658;1.312;2023-11-21T00:53:36;11.80;99.90
31729;DHT22;18309;43.658;1.312;2023-11-21T00:56:02;11.80;99.90
31729;DHT22;18309;43.658;1.312;2023-11-21T00:58:28;11.90;99.90
31729;DHT22;18309;43.658;1.312;2023-11-21T01:00:53;11.80;99.90
31729;DHT22;18309;43.658;1.312;2023-11-21T01:03:19;11.80;99.90
31729;DHT22;18309;43.658;1.312;2023-11-21T01:05:45;11.80;99.90
31729;DHT22;18309;43.658;1.312;2023-11-21T01:08:11;11.80;99.90
31729;DHT22;18309;43.658;1.312;2023-11-21T01:10:37;11.80;99.90
31729;DHT22;18309;43.658;1.312;2023-11-21T01:13:03;11.80;99.90
31729;DHT22;18309;43.658;1.312;2023-11-21T01:15:32;11.80;99.90
31729;DHT22;18309;43.658;1.312;2023-11-21T01:17:58;11.80;99.90
31729;DHT22;18309;43.658;1.312;2023-11-21T01:20:24;11.80;99.90
31729;DHT22;18309;43.658;1.312;2023-11-21T01:22:49;11.80;99.90
31729;DHT22;18309;43.658;1.312;2023-11-21T01:25:15;11.80;99.90
31729;DHT22;18309;43.658;1.312;2023-11-21T01:27:42;11.80;99.90
31729;DHT22;18309;43.658;1.312;2023-11-21T01:30:09;11.80;99.90
31729;DHT22;18309;43.658;1.312;2023-11-21T01:32:36;11.80;99.90
31729;DHT22;18309;43.658;1.312;2023-11-21T01:35:03;11.80;99.90
31729;DHT22;18309;43.658;1.312;2023-11-21T01:37:31;11.80;99.90
31729;DHT22;18309;43.658;1.312;2023-11-21T01:39:56;11.80;99.90
31729;DHT22;18309;43.658;1.312;2023-11-21T01:42:22;11.80;99.90
31729;DHT22;18309;43.658;1.312;2023-11-21T01:44:48;11.80;99.90
31729;DHT22;18309;43.658;1.312;2023-11-21T01:47:14;11.80;99.90
31729;DHT22;18309;43.658;1.312;2023-11-21T01:49:44;11.80;99.90
31729;DHT22;18309;43.658;1.312;2023-11-21T01:52:11;11.70;99.90
31729;DHT22;18309;43.658;1.312;2023-11-21T01:54:37;11.70;99.90
31729;DHT22;18309;43.658;1.312;2023-11-21T01:57:04;11.70;99.90
31729;DHT22;18309;43.658;1.312;2023-11-21T01:59:36;11.70;99.90
31729;DHT22;18309;43.658;1.312;2023-11-21T02:02:06;11.70;99.90
31729;DHT22;18309;43.658;1.312;2023-11-21T02:04:36;11.70;99.90
31729;DHT22;18309;43.658;1.312;2023-11-21T02:07:03;11.70;99.90
31729;DHT22;18309;43.658;1.312;2023-11-21T02:09:31;11.70;99.90
31729;DHT22;18309;43.658;1.312;2023-11-21T02:11:58;11.70;99.90
31729;DHT22;18309;43.658;1.312;2023-11-21T02:14:25;11.70;99.90
31729;DHT22;18309;43.658;1.312;2023-11-21T02:16:52;11.70;99.90
31729;DHT22;18309;43.658;1.312;2023-11-21T02:19:20;11.70;99.90
31729;DHT22;18309;43.658;1.312;2023-11-21T02:21:50;11.70;99.90
31729;DHT22;18309;43.658;1.312;2023-11-21T02:24:21;11.60;99.90
31729;DHT22;18309;43.658;1.312;2023-11-21T02:26:50;11.60;99.90
31729;DHT22;18309;43.658;1.312;2023-11-21T02:29:20;11.60;99.90
31729;DHT22;18309;43.658;1.312;2023-11-21T02:31:48;11.60;99.90
31729;DHT22;18309;43.658;1.312;2023-11-21T02:34:15;11.60;99.90
31729;DHT22;18309;43.658;1.312;2023-11-21T02:36:41;11.50;99.90
31729;DHT22;18309;43.658;1.312;2023-11-21T02:39:08;11.50;99.90
31729;DHT22;18309;43.658;1.312;2023-11-21T02:41:33;11.50;99.90
31729;DHT22;18309;43.658;1.312;2023-11-21T02:44:00;11.50;99.90
31729;DHT22;18309;43.658;1.312;2023-11-21T02:46:26;11.50;99.90
31729;DHT22;18309;43.658;1.312;2023-11-21T02:48:52;11.40;99.90
31729;DHT22;18309;43.658;1.312;2023-11-21T02:51:20;11.40;99.90
31729;DHT22;18309;43.658;1.312;2023-11-21T02:53:45;11.50;99.90
31729;DHT22;18309;43.658;1.312;2023-11-21T02:56:12;11.40;99.90
31729;DHT22;18309;43.658;1.312;2023-11-21T02:58:41;11.40;99.90
31729;DHT22;18309;43.658;1.312;2023-11-21T03:01:07;11.40;99.90
31729;DHT22;18309;43.658;1.312;2023-11-21T03:03:32;11.40;99.90
31729;DHT22;18309;43.658;1.312;2023-11-21T03:05:58;11.40;99.90
31729;DHT22;18309;43.658;1.312;2023-11-21T03:08:24;11.40;99.90
31729;DHT22;18309;43.658;1.312;2023-11-21T03:10:49;11.40;99.90
31729;DHT22;18309;43.658;1.312;2023-11-21T03:13:15;11.30;99.90
31729;DHT22;18309;43.658;1.312;2023-11-21T03:15:41;11.30;99.90
31729;DHT22;18309;43.658;1.312;2023-11-21T03:18:08;11.30;99.90
31729;DHT22;18309;43.658;1.312;2023-11-21T03:20:34;11.30;99.90
31729;DHT22;18309;43.658;1.312;2023-11-21T03:23:00;11.30;99.90
31729;DHT22;18309;43.658;1.312;2023-11-21T03:25:26;11.30;99.90
31729;DHT22;18309;43.658;1.312;2023-11-21T03:27:52;11.30;99.90
31729;DHT22;18309;43.658;1.312;2023-11-21T03:30:19;11.20;99.90
31729;DHT22;18309;43.658;1.312;2023-11-21T03:32:45;11.20;99.90
31729;DHT22;18309;43.658;1.312;2023-11-21T03:35:10;11.20;99.90
31729;DHT22;18309;43.658;1.312;2023-11-21T03:37:36;11.20;99.90
31729;DHT22;18309;43.658;1.312;2023-11-21T03:40:04;11.20;99.90
31729;DHT22;18309;43.658;1.312;2023-11-21T03:42:30;11.20;99.90
31729;DHT22;18309;43.658;1.312;2023-11-21T03:44:55;11.20;99.90
31729;DHT22;18309;43.658;1.312;2023-11-21T03:47:21;11.20;99.90
31729;DHT22;18309;43.658;1.312;2023-11-21T03:49:47;11.10;99.90
31729;DHT22;18309;43.658;1.312;2023-11-21T03:52:13;11.10;99.90
31729;DHT22;18309;43.658;1.312;2023-11-21T03:54:38;11.10;99.90
31729;DHT22;18309;43.658;1.312;2023-11-21T03:57:04;11.20;99.90
31729;DHT22;18309;43.658;1.312;2023-11-21T03:59:30;11.20;99.90
31729;DHT22;18309;43.658;1.312;2023-11-21T04:01:56;11.10;99.90
31729;DHT22;18309;43.658;1.312;2023-11-21T04:04:25;11.20;99.90
31729;DHT22;18309;43.658;1.312;2023-11-21T04:06:51;11.10;99.90
31729;DHT22;18309;43.658;1.312;2023-11-21T04:09:19;11.20;99.90
31729;DHT22;18309;43.658;1.312;2023-11-21T04:11:45;11.10;99.90
31729;DHT22;18309;43.658;1.312;2023-11-21T04:14:11;11.20;99.90
31729;DHT22;18309;43.658;1.312;2023-11-21T04:16:37;11.10;99.90
31729;DHT22;18309;43.658;1.312;2023-11-21T04:19:02;11.10;99.90
31729;DHT22;18309;43.658;1.312;2023-11-21T04:21:28;11.10;99.90
31729;DHT22;18309;43.658;1.312;2023-11-21T04:23:54;11.10;99.90
31729;DHT22;18309;43.658;1.312;2023-11-21T04:26:19;11.10;99.90
31729;DHT22;18309;43.658;1.312;2023-11-21T04:28:45;11.10;99.90
31729;DHT22;18309;43.658;1.312;2023-11-21T04:31:10;11.00;99.90
31729;DHT22;18309;43.658;1.312;2023-11-21T04:33:36;11.00;99.90
31729;DHT22;18309;43.658;1.312;2023-11-21T04:36:02;11.10;99.90
31729;DHT22;18309;43.658;1.312;2023-11-21T04:38:27;11.00;99.90
31729;DHT22;18309;43.658;1.312;2023-11-21T04:40:53;11.00;99.90
31729;DHT22;18309;43.658;1.312;2023-11-21T04:43:18;11.00;99.90
31729;DHT22;18309;43.658;1.312;2023-11-21T04:45:44;11.00;99.90
31729;DHT22;18309;43.658;1.312;2023-11-21T04:48:12;11.00;99.90
31729;DHT22;18309;43.658;1.312;2023-11-21T04:50:38;11.00;99.90
31729;DHT22;18309;43.658;1.312;2023-11-21T04:53:04;11.00;99.90
31729;DHT22;18309;43.658;1.312;2023-11-21T04:55:31;11.00;99.90
31729;DHT22;18309;43.658;1.312;2023-11-21T04:57:56;11.10;99.90
31729;DHT22;18309;43.658;1.312;2023-11-21T05:00:22;11.10;99.90
31729;DHT22;18309;43.658;1.312;2023-11-21T05:02:48;11.10;99.90
31729;DHT22;18309;43.658;1.312;2023-11-21T05:05:13;11.10;99.90
31729;DHT22;18309;43.658;1.312;2023-11-21T05:07:40;11.10;99.90
31729;DHT22;18309;43.658;1.312;2023-11-21T05:10:07;11.10;99.90
31729;DHT22;18309;43.658;1.312;2023-11-21T05:12:36;11.10;99.90
31729;DHT22;18309;43.658;1.312;2023-11-21T05:15:05;11.10;99.90
31729;DHT22;18309;43.658;1.312;2023-11-21T05:17:37;11.10;99.90
31729;DHT22;18309;43.658;1.312;2023-11-21T05:20:06;11.10;99.90
31729;DHT22;18309;43.658;1.312;2023-11-21T05:22:34;11.10;99.90
31729;DHT22;18309;43.658;1.312;2023-11-21T05:25:00;11.10;99.90
31729;DHT22;18309;43.658;1.312;2023-11-21T05:27:26;11.10;99.90
31729;DHT22;18309;43.658;1.312;2023-11-21T05:29:52;11.10;99.90
31729;DHT22;18309;43.658;1.312;2023-11-21T05:32:17;11.20;99.90
31729;DHT22;18309;43.658;1.312;2023-11-21T05:34:43;11.10;99.90
31729;DHT22;18309;43.658;1.312;2023-11-21T05:37:09;11.20;99.90
31729;DHT22;18309;43.658;1.312;2023-11-21T05:39:35;11.10;99.90
31729;DHT22;18309;43.658;1.312;2023-11-21T05:42:01;11.10;99.90
31729;DHT22;18309;43.658;1.312;2023-11-21T05:44:27;11.10;99.90
31729;DHT22;18309;43.658;1.312;2023-11-21T05:46:52;11.10;99.90
31729;DHT22;18309;43.658;1.312;2023-11-21T05:49:18;11.20;99.90
31729;DHT22;18309;43.658;1.312;2023-11-21T05:51:47;11.20;99.90
31729;DHT22;18309;43.658;1.312;2023-11-21T05:54:13;11.20;99.90
31729;DHT22;18309;43.658;1.312;2023-11-21T05:56:38;11.20;99.90
31729;DHT22;18309;43.658;1.312;2023-11-21T05:59:04;11.20;99.90
31729;DHT22;18309;43.658;1.312;2023-11-21T06:01:29;11.20;99.90
31729;DHT22;18309;43.658;1.312;2023-11-21T06:03:55;11.20;99.90
31729;DHT22;18309;43.658;1.312;2023-11-21T06:06:21;11.20;99.90
31729;DHT22;18309;43.658;1.312;2023-11-21T06:08:48;11.20;99.90
31729;DHT22;18309;43.658;1.312;2023-11-21T06:11:14;11.20;99.90
31729;DHT22;18309;43.658;1.312;2023-11-21T06:13:41;11.20;99.90
31729;DHT22;18309;43.658;1.312;2023-11-21T06:16:07;11.20;99.90
31729;DHT22;18309;43.658;1.312;2023-11-21T06:18:33;11.20;99.90
31729;DHT22;18309;43.658;1.312;2023-11-21T06:21:00;11.20;99.90
31729;DHT22;18309;43.658;1.312;2023-11-21T06:23:26;11.20;99.90
31729;DHT22;18309;43.658;1.312;2023-11-21T06:25:52;11.20;99.90
31729;DHT22;18309;43.658;1.312;2023-11-21T06:28:18;11.10;99.90
31729;DHT22;18309;43.658;1.312;2023-11-21T06:30:44;11.20;99.90
31729;DHT22;18309;43.658;1.312;2023-11-21T06:33:12;11.20;99.90
31729;DHT22;18309;43.658;1.312;2023-11-21T06:35:38;11.20;99.90
31729;DHT22;18309;43.658;1.312;2023-11-21T06:38:04;11.20;99.90
31729;DHT22;18309;43.658;1.312;2023-11-21T06:40:29;11.20;99.90
31729;DHT22;18309;43.658;1.312;2023-11-21T06:42:55;11.20;99.90
31729;DHT22;18309;43.658;1.312;2023-11-21T06:45:21;11.20;99.90
31729;DHT22;18309;43.658;1.312;2023-11-21T06:47:47;11.20;99.90
31729;DHT22;18309;43.658;1.312;2023-11-21T06:50:14;11.20;99.90
31729;DHT22;18309;43.658;1.312;2023-11-21T06:52:39;11.20;99.90
31729;DHT22;18309;43.658;1.312;2023-11-21T06:55:05;11.20;99.90
31729;DHT22;18309;43.658;1.312;2023-11-21T06:57:33;11.30;99.90
31729;DHT22;18309;43.658;1.312;2023-11-21T06:59:59;11.20;99.90
31729;DHT22;18309;43.658;1.312;2023-11-21T07:02:25;11.30;99.90
31729;DHT22;18309;43.658;1.312;2023-11-21T07:04:50;11.20;99.90
31729;DHT22;18309;43.658;1.312;2023-11-21T07:07:16;11.30;99.90
31729;DHT22;18309;43.658;1.312;2023-11-21T07:09:42;11.20;99.90
31729;DHT22;18309;43.658;1.312;2023-11-21T07:12:07;11.20;99.90
31729;DHT22;18309;43.658;1.312;2023-11-21T07:14:34;11.20;99.90
31729;DHT22;18309;43.658;1.312;2023-11-21T07:17:00;11.20;99.90
31729;DHT22;18309;43.658;1.312;2023-11-21T07:19:25;11.20;99.90
31729;DHT22;18309;43.658;1.312;2023-11-21T07:21:51;11.30;99.90
31729;DHT22;18309;43.658;1.312;2023-11-21T07:24:17;11.30;99.90
31729;DHT22;18309;43.658;1.312;2023-11-21T07:26:42;11.20;99.90
31729;DHT22;18309;43.658;1.312;2023-11-21T07:29:08;11.20;99.90
31729;DHT22;18309;43.658;1.312;2023-11-21T07:31:34;11.30;99.90
31729;DHT22;18309;43.658;1.312;2023-11-21T07:34:00;11.30;99.90
31729;DHT22;18309;43.658;1.312;2023-11-21T07:36:26;11.30;99.90
31729;DHT22;18309;43.658;1.312;2023-11-21T07:38:52;11.30;99.90
31729;DHT22;18309;43.658;1.312;2023-11-21T07:41:18;11.30;99.90
31729;DHT22;18309;43.658;1.312;2023-11-21T07:43:47;11.30;99.90
31729;DHT22;18309;43.658;1.312;2023-11-21T07:46:13;11.30;99.90
31729;DHT22;18309;43.658;1.312;2023-11-21T07:48:40;11.30;99.90
31729;DHT22;18309;43.658;1.312;2023-11-21T07:51:06;11.30;99.90
31729;DHT22;18309;43.658;1.312;2023-11-21T07:53:32;11.30;99.90
31729;DHT22;18309;43.658;1.312;2023-11-21T07:56:02;11.40;99.90
31729;DHT22;18309;43.658;1.312;2023-11-21T07:58:28;11.40;99.90
31729;DHT22;18309;43.658;1.312;2023-11-21T08:00:54;11.40;99.90
31729;DHT22;18309;43.658;1.312;2023-11-21T08:03:20;11.40;99.90
31729;DHT22;18309;43.658;1.312;2023-11-21T08:05:46;11.40;99.90
31729;DHT22;18309;43.658;1.312;2023-11-21T08:08:12;11.40;99.90
31729;DHT22;18309;43.658;1.312;2023-11-21T08:10:38;11.40;99.90
31729;DHT22;18309;43.658;1.312;2023-11-21T08:13:07;11.30;99.90
31729;DHT22;18309;43.658;1.312;2023-11-21T08:15:34;11.10;99.90
31729;DHT22;18309;43.658;1.312;2023-11-21T08:18:02;10.90;99.90
31729;DHT22;18309;43.658;1.312;2023-11-21T08:20:28;10.90;99.90
31729;DHT22;18309;43.658;1.312;2023-11-21T08:22:53;10.90;99.90
31729;DHT22;18309;43.658;1.312;2023-11-21T08:25:20;10.90;99.90
31729;DHT22;18309;43.658;1.312;2023-11-21T08:27:46;10.90;99.90
31729;DHT22;18309;43.658;1.312;2023-11-21T08:30:12;11.00;99.90
31729;DHT22;18309;43.658;1.312;2023-11-21T08:32:39;11.00;99.90
31729;DHT22;18309;43.658;1.312;2023-11-21T08:35:07;11.10;99.90
31729;DHT22;18309;43.658;1.312;2023-11-21T08:37:33;11.10;99.90
31729;DHT22;18309;43.658;1.312;2023-11-21T08:40:03;11.30;99.90
31729;DHT22;18309;43.658;1.312;2023-11-21T08:42:29;11.30;99.90
31729;DHT22;18309;43.658;1.312;2023-11-21T08:44:56;11.20;99.90
31729;DHT22;18309;43.658;1.312;2023-11-21T08:47:23;11.20;99.90
31729;DHT22;18309;43.658;1.312;2023-11-21T08:49:50;11.20;99.90
31729;DHT22;18309;43.658;1.312;2023-11-21T08:52:21;11.20;99.90
31729;DHT22;18309;43.658;1.312;2023-11-21T08:54:48;11.10;99.90
31729;DHT22;18309;43.658;1.312;2023-11-21T08:57:21;11.10;99.90
31729;DHT22;18309;43.658;1.312;2023-11-21T08:59:47;11.10;99.90
31729;DHT22;18309;43.658;1.312;2023-11-21T09:02:13;11.10;99.90
31729;DHT22;18309;43.658;1.312;2023-11-21T09:04:38;11.10;99.90
31729;DHT22;18309;43.658;1.312;2023-11-21T09:07:04;11.20;99.90
31729;DHT22;18309;43.658;1.312;2023-11-21T09:09:31;11.10;99.90
31729;DHT22;18309;43.658;1.312;2023-11-21T09:11:56;11.00;99.90
31729;DHT22;18309;43.658;1.312;2023-11-21T09:14:22;11.10;99.90
31729;DHT22;18309;43.658;1.312;2023-11-21T09:16:48;11.20;99.90
31729;DHT22;18309;43.658;1.312;2023-11-21T09:19:14;11.30;99.90
31729;DHT22;18309;43.658;1.312;2023-11-21T09:21:40;11.40;99.90
31729;DHT22;18309;43.658;1.312;2023-11-21T09:24:06;11.50;99.90
31729;DHT22;18309;43.658;1.312;2023-11-21T09:26:34;11.60;99.90
31729;DHT22;18309;43.658;1.312;2023-11-21T09:29:00;11.60;99.90
31729;DHT22;18309;43.658;1.312;2023-11-21T09:31:27;11.60;99.90
31729;DHT22;18309;43.658;1.312;2023-11-21T09:33:53;11.60;99.90
31729;DHT22;18309;43.658;1.312;2023-11-21T09:36:18;11.60;99.90
31729;DHT22;18309;43.658;1.312;2023-11-21T09:38:44;11.70;99.90
31729;DHT22;18309;43.658;1.312;2023-11-21T09:41:34;11.60;99.90
31729;DHT22;18309;43.658;1.312;2023-11-21T09:44:02;11.70;99.90
31729;DHT22;18309;43.658;1.312;2023-11-21T09:46:33;11.90;99.90
31729;DHT22;18309;43.658;1.312;2023-11-21T09:49:01;12.00;99.90
31729;DHT22;18309;43.658;1.312;2023-11-21T09:51:31;12.00;99.90
31729;DHT22;18309;43.658;1.312;2023-11-21T09:53:59;12.20;99.90
31729;DHT22;18309;43.658;1.312;2023-11-21T09:56:27;12.10;99.90
31729;DHT22;18309;43.658;1.312;2023-11-21T09:58:55;11.90;99.90
31729;DHT22;18309;43.658;1.312;2023-11-21T10:01:23;11.80;99.90
31729;DHT22;18309;43.658;1.312;2023-11-21T10:03:50;11.80;99.90
31729;DHT22;18309;43.658;1.312;2023-11-21T10:06:17;11.70;99.90
31729;DHT22;18309;43.658;1.312;2023-11-21T10:08:43;11.70;99.90
31729;DHT22;18309;43.658;1.312;2023-11-21T10:11:11;11.80;99.90
31729;DHT22;18309;43.658;1.312;2023-11-21T10:13:37;11.90;99.90
31729;DHT22;18309;43.658;1.312;2023-11-21T10:16:05;12.00;99.90
31729;DHT22;18309;43.658;1.312;2023-11-21T10:18:33;12.10;99.90
31729;DHT22;18309;43.658;1.312;2023-11-21T10:21:00;12.20;99.90
31729;DHT22;18309;43.658;1.312;2023-11-21T10:23:26;12.30;99.90
31729;DHT22;18309;43.658;1.312;2023-11-21T10:25:52;12.30;99.90
31729;DHT22;18309;43.658;1.312;2023-11-21T10:28:18;12.40;99.90
31729;DHT22;18309;43.658;1.312;2023-11-21T10:30:46;12.80;99.90
31729;DHT22;18309;43.658;1.312;2023-11-21T10:33:11;12.90;99.90
31729;DHT22;18309;43.658;1.312;2023-11-21T10:35:45;12.80;99.90
31729;DHT22;18309;43.658;1.312;2023-11-21T10:38:17;12.50;99.90
31729;DHT22;18309;43.658;1.312;2023-11-21T10:40:44;12.40;99.90
31729;DHT22;18309;43.658;1.312;2023-11-21T10:43:10;12.40;99.90
31729;DHT22;18309;43.658;1.312;2023-11-21T10:45:39;12.30;99.90
31729;DHT22;18309;43.658;1.312;2023-11-21T10:48:06;12.50;99.90
31729;DHT22;18309;43.658;1.312;2023-11-21T10:50:43;12.60;99.90
31729;DHT22;18309;43.658;1.312;2023-11-21T10:53:09;12.50;99.90
31729;DHT22;18309;43.658;1.312;2023-11-21T10:55:37;12.50;99.90
31729;DHT22;18309;43.658;1.312;2023-11-21T10:58:04;12.40;99.90
31729;DHT22;18309;43.658;1.312;2023-11-21T11:00:32;12.30;99.90
31729;DHT22;18309;43.658;1.312;2023-11-21T11:02:58;12.30;99.90
31729;DHT22;18309;43.658;1.312;2023-11-21T11:05:29;12.20;99.90
31729;DHT22;18309;43.658;1.312;2023-11-21T11:08:05;12.10;99.90
31729;DHT22;18309;43.658;1.312;2023-11-21T11:10:31;12.00;99.90
31729;DHT22;18309;43.658;1.312;2023-11-21T11:12:58;12.00;99.90
31729;DHT22;18309;43.658;1.312;2023-11-21T11:15:27;11.90;99.90
31729;DHT22;18309;43.658;1.312;2023-11-21T11:17:54;11.80;99.90
31729;DHT22;18309;43.658;1.312;2023-11-21T11:20:27;11.80;99.90
31729;DHT22;18309;43.658;1.312;2023-11-21T11:28:15;12.20;99.90
31729;DHT22;18309;43.658;1.312;2023-11-21T11:36:19;12.50;99.90
31729;DHT22;18309;43.658;1.312;2023-11-21T11:38:47;12.60;99.90
31729;DHT22;18309;43.658;1.312;2023-11-21T11:41:30;12.70;99.90
31729;DHT22;18309;43.658;1.312;2023-11-21T11:43:58;12.70;99.90
31729;DHT22;18309;43.658;1.312;2023-11-21T11:46:43;12.80;99.90
31729;DHT22;18309;43.658;1.312;2023-11-21T11:49:28;13.00;99.90
31729;DHT22;18309;43.658;1.312;2023-11-21T11:52:35;12.80;99.90
31729;DHT22;18309;43.658;1.312;2023-11-21T11:55:06;12.80;99.90
31729;DHT22;18309;43.658;1.312;2023-11-21T11:57:32;12.70;99.90
31729;DHT22;18309;43.658;1.312;2023-11-21T12:00:16;12.70;99.90
31729;DHT22;18309;43.658;1.312;2023-11-21T12:02:52;12.70;99.90
31729;DHT22;18309;43.658;1.312;2023-11-21T12:05:19;12.70;99.90
31729;DHT22;18309;43.658;1.312;2023-11-21T12:10:16;12.40;99.90
31729;DHT22;18309;43.658;1.312;2023-11-21T12:12:48;12.10;99.90
31729;DHT22;18309;43.658;1.312;2023-11-21T12:15:14;11.50;99.90
31729;DHT22;18309;43.658;1.312;2023-11-21T12:17:42;11.30;99.90
31729;DHT22;18309;43.658;1.312;2023-11-21T12:20:09;11.00;99.90
31729;DHT22;18309;43.658;1.312;2023-11-21T12:22:50;11.00;99.90
31729;DHT22;18309;43.658;1.312;2023-11-21T12:27:50;10.90;99.90
31729;DHT22;18309;43.658;1.312;2023-11-21T12:30:21;11.00;99.90
31729;DHT22;18309;43.658;1.312;2023-11-21T12:32:54;11.10;99.90
31729;DHT22;18309;43.658;1.312;2023-11-21T12:35:22;11.20;99.90
31729;DHT22;18309;43.658;1.312;2023-11-21T12:37:49;11.40;99.90
31729;DHT22;18309;43.658;1.312;2023-11-21T12:40:17;11.40;99.90
31729;DHT22;18309;43.658;1.312;2023-11-21T12:42:45;11.30;99.90
31729;DHT22;18309;43.658;1.312;2023-11-21T12:45:24;11.20;99.90
31729;DHT22;18309;43.658;1.312;2023-11-21T12:48:04;11.30;99.90
31729;DHT22;18309;43.658;1.312;2023-11-21T12:50:34;11.30;99.90
31729;DHT22;18309;43.658;1.312;2023-11-21T12:53:03;11.40;99.90
31729;DHT22;18309;43.658;1.312;2023-11-21T12:55:32;11.50;99.90
31729;DHT22;18309;43.658;1.312;2023-11-21T12:58:01;11.50;99.90
31729;DHT22;18309;43.658;1.312;2023-11-21T13:00:35;11.40;99.90
31729;DHT22;18309;43.658;1.312;2023-11-21T13:03:05;11.20;99.90
31729;DHT22;18309;43.658;1.312;2023-11-21T13:05:35;11.10;99.90
31729;DHT22;18309;43.658;1.312;2023-11-21T13:08:05;11.00;99.90
31729;DHT22;18309;43.658;1.312;2023-11-21T13:10:34;11.00;99.90
31729;DHT22;18309;43.658;1.312;2023-11-21T13:13:03;10.90;99.90
31729;DHT22;18309;43.658;1.312;2023-11-21T13:15:31;10.90;99.90
31729;DHT22;18309;43.658;1.312;2023-11-21T13:17:58;10.90;99.90
31729;DHT22;18309;43.658;1.312;2023-11-21T13:20:27;11.00;99.90
31729;DHT22;18309;43.658;1.312;2023-11-21T13:22:54;11.10;99.90
31729;DHT22;18309;43.658;1.312;2023-11-21T13:25:25;11.20;99.90
31729;DHT22;18309;43.658;1.312;2023-11-21T13:27:54;11.30;99.90
31729;DHT22;18309;43.658;1.312;2023-11-21T13:30:21;11.40;99.90
31729;DHT22;18309;43.658;1.312;2023-11-21T13:32:56;11.50;99.90
31729;DHT22;18309;43.658;1.312;2023-11-21T13:35:31;11.50;99.90
31729;DHT22;18309;43.658;1.312;2023-11-21T13:38:10;11.50;99.90
31729;DHT22;18309;43.658;1.312;2023-11-21T13:40:37;11.60;99.90
31729;DHT22;18309;43.658;1.312;2023-11-21T13:43:09;11.60;99.90
31729;DHT22;18309;43.658;1.312;2023-11-21T13:45:39;11.70;99.90
31729;DHT22;18309;43.658;1.312;2023-11-21T13:48:05;11.60;99.90
31729;DHT22;18309;43.658;1.312;2023-11-21T13:50:39;11.70;99.90
31729;DHT22;18309;43.658;1.312;2023-11-21T13:53:10;11.80;99.90
31729;DHT22;18309;43.658;1.312;2023-11-21T13:55:51;11.90;99.90
31729;DHT22;18309;43.658;1.312;2023-11-21T13:58:20;11.90;99.90
31729;DHT22;18309;43.658;1.312;2023-11-21T14:01:05;12.00;99.90
31729;DHT22;18309;43.658;1.312;2023-11-21T14:03:38;12.00;99.90
31729;DHT22;18309;43.658;1.312;2023-11-21T14:06:15;11.90;99.90
31729;DHT22;18309;43.658;1.312;2023-11-21T14:08:48;11.90;99.90
31729;DHT22;18309;43.658;1.312;2023-11-21T14:11:14;11.80;99.90
31729;DHT22;18309;43.658;1.312;2023-11-21T14:13:43;11.80;99.90
31729;DHT22;18309;43.658;1.312;2023-11-21T14:16:13;11.90;99.90
31729;DHT22;18309;43.658;1.312;2023-11-21T14:18:39;11.90;99.90
31729;DHT22;18309;43.658;1.312;2023-11-21T14:21:18;11.90;99.90
31729;DHT22;18309;43.658;1.312;2023-11-21T14:23:44;11.80;99.90
31729;DHT22;18309;43.658;1.312;2023-11-21T14:26:11;11.80;99.90
31729;DHT22;18309;43.658;1.312;2023-11-21T14:28:39;11.80;99.90
31729;DHT22;18309;43.658;1.312;2023-11-21T14:31:05;11.80;99.90
31729;DHT22;18309;43.658;1.312;2023-11-21T14:33:30;11.90;99.90
31729;DHT22;18309;43.658;1.312;2023-11-21T14:35:56;12.00;99.90
31729;DHT22;18309;43.658;1.312;2023-11-21T14:38:23;12.10;99.90
31729;DHT22;18309;43.658;1.312;2023-11-21T14:40:48;12.20;99.90
31729;DHT22;18309;43.658;1.312;2023-11-21T14:43:15;12.30;99.90
31729;DHT22;18309;43.658;1.312;2023-11-21T14:45:41;12.60;99.90
31729;DHT22;18309;43.658;1.312;2023-11-21T14:48:07;12.70;99.90
31729;DHT22;18309;43.658;1.312;2023-11-21T14:50:42;12.90;99.90
31729;DHT22;18309;43.658;1.312;2023-11-21T14:53:11;12.70;99.90
31729;DHT22;18309;43.658;1.312;2023-11-21T14:55:38;12.60;99.90
31729;DHT22;18309;43.658;1.312;2023-11-21T14:58:19;12.70;99.90
31729;DHT22;18309;43.658;1.312;2023-11-21T15:00:54;12.70;99.90
31729;DHT22;18309;43.658;1.312;2023-11-21T15:03:27;12.70;99.90
31729;DHT22;18309;43.658;1.312;2023-11-21T15:06:02;12.70;99.90
31729;DHT22;18309;43.658;1.312;2023-11-21T15:08:50;12.60;99.90
31729;DHT22;18309;43.658;1.312;2023-11-21T15:11:42;12.40;99.90
31729;DHT22;18309;43.658;1.312;2023-11-21T15:14:08;12.30;99.90
31729;DHT22;18309;43.658;1.312;2023-11-21T15:16:37;12.30;99.90
31729;DHT22;18309;43.658;1.312;2023-11-21T15:19:05;12.30;99.90
31729;DHT22;18309;43.658;1.312;2023-11-21T15:21:31;12.30;99.90
31729;DHT22;18309;43.658;1.312;2023-11-21T15:23:58;12.20;99.90
31729;DHT22;18309;43.658;1.312;2023-11-21T15:26:24;12.20;99.90
31729;DHT22;18309;43.658;1.312;2023-11-21T15:28:49;12.10;99.90
31729;DHT22;18309;43.658;1.312;2023-11-21T15:31:15;12.00;99.90
31729;DHT22;18309;43.658;1.312;2023-11-21T15:33:49;12.00;99.90
31729;DHT22;18309;43.658;1.312;2023-11-21T15:36:14;11.90;99.90
31729;DHT22;18309;43.658;1.312;2023-11-21T15:38:40;11.90;99.90
31729;DHT22;18309;43.658;1.312;2023-11-21T15:41:06;11.80;99.90
31729;DHT22;18309;43.658;1.312;2023-11-21T15:43:35;11.80;99.90
31729;DHT22;18309;43.658;1.312;2023-11-21T15:46:01;11.80;99.90
31729;DHT22;18309;43.658;1.312;2023-11-21T15:48:31;11.70;99.90
31729;DHT22;18309;43.658;1.312;2023-11-21T15:50:57;11.70;99.90